createdAt,value
2018-01-20T00:00:14.275Z,1000.33
2018-01-20T00:00:54.791Z,1000.31
2018-01-20T00:01:35.409Z,1000.32
2018-01-20T00:02:15.679Z,1000.31
2018-01-20T00:02:56.431Z,1000.33
2018-01-20T00:03:36.916Z,1000.29
2018-01-20T00:04:17.792Z,1000.33
2018-01-20T00:04:58.186Z,1000.34
2018-01-20T00:05:38.705Z,1000.28
2018-01-20T00:06:19.032Z,1000.32
2018-01-20T00:06:59.447Z,1000.3
2018-01-20T00:07:39.916Z,1000.31
2018-01-20T00:08:20.378Z,1000.21
2018-01-20T00:09:00.866Z,1000.29
2018-01-20T00:09:41.240Z,1000.22
2018-01-20T00:10:22.204Z,1000.29
2018-01-20T00:11:02.557Z,1000.25
2018-01-20T00:11:43.010Z,1000.27
2018-01-20T00:12:23.591Z,1000.29
2018-01-20T00:13:03.990Z,1000.29
2018-01-20T00:13:45.046Z,1000.27
2018-01-20T00:14:25.354Z,1000.31
2018-01-20T00:15:05.832Z,1000.28
2018-01-20T00:15:46.683Z,1000.26
2018-01-20T00:16:27.210Z,1000.26
2018-01-20T00:17:07.657Z,1000.24
2018-01-20T00:17:47.997Z,1000.24
2018-01-20T00:18:28.627Z,1000.22
2018-01-20T00:19:08.943Z,1000.27
2018-01-20T00:19:49.396Z,1000.27
2018-01-20T00:20:29.685Z,1000.27
2018-01-20T00:21:10.447Z,1000.23
2018-01-20T00:21:50.627Z,1000.27
2018-01-20T00:22:30.992Z,1000.25
2018-01-20T00:23:11.379Z,1000.29
2018-01-20T00:23:51.838Z,1000.25
2018-01-20T00:24:32.288Z,1000.26
2018-01-20T00:25:12.733Z,1000.31
2018-01-20T00:25:53.560Z,1000.26
2018-01-20T00:26:33.855Z,1000.28
2018-01-20T00:27:14.231Z,1000.29
2018-01-20T00:27:54.673Z,1000.29
2018-01-20T00:28:35.080Z,1000.28
2018-01-20T00:29:15.641Z,1000.3
2018-01-20T00:29:55.919Z,1000.23
2018-01-20T00:30:36.328Z,1000.24
2018-01-20T00:31:16.719Z,1000.2
2018-01-20T00:31:57.141Z,1000.23
2018-01-20T00:32:37.593Z,1000.23
2018-01-20T00:33:17.945Z,1000.25
2018-01-20T00:33:58.643Z,1000.23
2018-01-20T00:34:39.040Z,1000.22
2018-01-20T00:35:19.461Z,1000.21
2018-01-20T00:35:59.846Z,1000.21
2018-01-20T00:36:40.246Z,1000.16
2018-01-20T00:37:20.744Z,1000.21
2018-01-20T00:38:01.060Z,1000.17
2018-01-20T00:38:42.046Z,1000.17
2018-01-20T00:39:21.989Z,1000.16
2018-01-20T00:40:02.353Z,1000.23
2018-01-20T00:40:43.021Z,1000.11
2018-01-20T00:41:23.422Z,1000.11
2018-01-20T00:42:03.713Z,1000.14
2018-01-20T00:42:44.207Z,1000.17
2018-01-20T00:43:24.616Z,1000.14
2018-01-20T00:45:24.167Z,1000.11
2018-01-20T00:46:05.224Z,1000.08
2018-01-20T00:46:45.605Z,1000.1
2018-01-20T00:47:26.008Z,1000.08
2018-01-20T00:48:06.471Z,1000.08
2018-01-20T00:48:46.798Z,1000.09
2018-01-20T00:49:27.265Z,1000.08
2018-01-20T00:50:07.733Z,1000.08
2018-01-20T00:50:48.187Z,1000.14
2018-01-20T00:51:28.514Z,1000.08
2018-01-20T00:52:08.955Z,1000.08
2018-01-20T00:52:49.330Z,1000.03
2018-01-20T00:53:29.692Z,1000.12
2018-01-20T00:54:10.203Z,1000.06
2018-01-20T00:54:50.550Z,1000.1
2018-01-20T00:55:31.143Z,1000.06
2018-01-20T00:56:12.116Z,1000.1
2018-01-20T00:56:52.547Z,1000.08
2018-01-20T00:57:33.384Z,1000.1
2018-01-20T00:58:13.870Z,1000.09
2018-01-20T00:58:54.150Z,1000.07
2018-01-20T00:59:34.561Z,1000.07
2018-01-20T01:00:14.955Z,1000.06
2018-01-20T01:00:55.341Z,1000.03
2018-01-20T01:01:35.807Z,1000.03
2018-01-20T01:02:16.328Z,1000.07
2018-01-20T01:02:56.563Z,1000.05
2018-01-20T01:03:37.013Z,1000.06
2018-01-20T01:04:17.514Z,1000.01
2018-01-20T01:04:57.805Z,1000.02
2018-01-20T01:07:14.431Z,999.98
2018-01-20T01:08:02.528Z,1000.02
2018-01-20T01:08:48.970Z,999.96
2018-01-20T01:09:29.150Z,999.97
2018-01-20T01:10:09.459Z,999.98
2018-01-20T01:10:49.864Z,999.96
2018-01-20T01:11:30.212Z,999.96
2018-01-20T01:12:10.590Z,999.95
2018-01-20T01:12:51.131Z,999.94
2018-01-20T01:13:31.578Z,999.96
2018-01-20T01:14:12.050Z,999.97
2018-01-20T01:14:52.538Z,999.98
2018-01-20T01:15:32.755Z,1000.02
2018-01-20T01:16:13.200Z,1000
2018-01-20T01:16:53.665Z,1000
2018-01-20T01:17:34.123Z,1000.03
2018-01-20T01:18:14.554Z,999.99
2018-01-20T01:18:54.857Z,1000.03
2018-01-20T01:19:35.305Z,1000.01
2018-01-20T01:20:16.063Z,1000.06
2018-01-20T01:20:56.492Z,999.62
2018-01-20T01:21:36.878Z,999.98
2018-01-20T01:22:17.249Z,999.99
2018-01-20T01:22:57.662Z,999.97
2018-01-20T01:25:11.413Z,999.91
2018-01-20T01:25:51.878Z,999.91
2018-01-20T01:26:32.318Z,999.9
2018-01-20T01:27:12.692Z,999.93
2018-01-20T01:27:53.130Z,999.93
2018-01-20T01:28:33.521Z,999.93
2018-01-20T01:29:13.896Z,999.91
2018-01-20T01:29:54.283Z,999.91
2018-01-20T01:30:34.838Z,999.92
2018-01-20T01:31:15.405Z,999.95
2018-01-20T01:31:55.884Z,999.87
2018-01-20T01:32:36.247Z,999.89
2018-01-20T01:33:16.681Z,999.82
2018-01-20T01:33:57.113Z,999.84
2018-01-20T01:34:37.758Z,999.84
2018-01-20T01:35:18.148Z,999.84
2018-01-20T01:35:58.634Z,999.87
2018-01-20T01:36:38.987Z,999.93
2018-01-20T01:37:19.594Z,999.91
2018-01-20T01:37:59.987Z,999.89
2018-01-20T01:38:40.724Z,999.95
2018-01-20T01:39:21.286Z,999.93
2018-01-20T01:40:01.756Z,999.88
2018-01-20T01:40:42.433Z,999.96
2018-01-20T01:41:22.692Z,999.8
2018-01-20T01:42:03.077Z,999.89
2018-01-20T01:42:43.544Z,999.89
2018-01-20T01:43:23.917Z,999.83
2018-01-20T01:44:04.251Z,999.86
2018-01-20T01:44:44.870Z,999.84
2018-01-20T01:45:25.416Z,999.87
2018-01-20T01:46:05.826Z,999.87
2018-01-20T01:46:46.308Z,999.87
2018-01-20T01:47:26.721Z,999.86
2018-01-20T01:48:07.741Z,999.87
2018-01-20T01:48:47.931Z,999.88
2018-01-20T01:50:51.321Z,999.88
2018-01-20T01:51:33.514Z,999.81
2018-01-20T01:52:16.798Z,999.91
2018-01-20T01:52:59.911Z,999.85
2018-01-20T01:53:43.295Z,999.87
2018-01-20T01:54:23.746Z,999.94
2018-01-20T01:55:04.558Z,999.91
2018-01-20T01:55:48.755Z,999.91
2018-01-20T01:56:29.776Z,999.96
2018-01-20T01:57:10.199Z,999.9
2018-01-20T01:57:50.638Z,999.93
2018-01-20T01:58:31.001Z,999.92
2018-01-20T01:59:11.530Z,999.95
2018-01-20T02:01:05.975Z,999.89
2018-01-20T02:01:46.362Z,999.89
2018-01-20T02:02:26.945Z,999.88
2018-01-20T02:03:07.260Z,999.92
2018-01-20T02:03:47.672Z,999.88
2018-01-20T02:04:28.047Z,999.86
2018-01-20T02:05:08.441Z,999.82
2018-01-20T02:05:48.840Z,999.87
2018-01-20T02:06:29.214Z,999.88
2018-01-20T02:07:09.996Z,999.85
2018-01-20T02:07:50.381Z,999.89
2018-01-20T02:08:30.773Z,999.86
2018-01-20T02:09:11.218Z,999.85
2018-01-20T02:09:51.579Z,999.84
2018-01-20T02:10:32.022Z,999.83
2018-01-20T02:11:12.439Z,999.85
2018-01-20T02:11:53.021Z,999.85
2018-01-20T02:12:33.476Z,999.84
2018-01-20T02:13:13.810Z,999.87
2018-01-20T02:13:54.382Z,999.83
2018-01-20T02:14:34.707Z,999.84
2018-01-20T02:15:15.540Z,999.85
2018-01-20T02:15:56.151Z,999.81
2018-01-20T02:16:36.324Z,999.85
2018-01-20T02:17:16.985Z,999.89
2018-01-20T02:17:57.318Z,999.76
2018-01-20T02:18:37.938Z,999.89
2018-01-20T02:19:18.632Z,999.91
2018-01-20T02:19:58.663Z,999.89
2018-01-20T02:20:39.134Z,999.96
2018-01-20T02:21:19.483Z,1000
2018-01-20T02:22:00.256Z,999.9
2018-01-20T02:22:40.327Z,999.93
2018-01-20T02:23:20.980Z,999.95
2018-01-20T02:24:01.395Z,999.91
2018-01-20T02:24:41.709Z,999.91
2018-01-20T02:25:22.300Z,999.95
2018-01-20T02:26:02.683Z,999.9
2018-01-20T02:26:43.180Z,999.9
2018-01-20T02:27:23.450Z,999.9
2018-01-20T02:28:04.194Z,999.9
2018-01-20T02:28:44.504Z,999.89
2018-01-20T02:29:25.162Z,999.84
2018-01-20T02:30:05.572Z,999.86
2018-01-20T02:30:46.203Z,999.89
2018-01-20T02:31:26.934Z,999.9
2018-01-20T02:33:40.650Z,999.81
2018-01-20T02:34:23.795Z,999.91
2018-01-20T02:35:03.910Z,999.82
2018-01-20T02:35:44.296Z,999.88
2018-01-20T02:36:24.694Z,999.84
2018-01-20T02:37:05.345Z,999.83
2018-01-20T02:37:45.762Z,999.84
2018-01-20T02:38:26.467Z,999.83
2018-01-20T02:39:06.602Z,999.84
2018-01-20T02:39:47.049Z,999.81
2018-01-20T02:40:27.459Z,999.78
2018-01-20T02:41:07.828Z,999.73
2018-01-20T02:41:48.266Z,999.76
2018-01-20T02:42:28.678Z,999.73
2018-01-20T02:43:09.072Z,999.78
2018-01-20T02:43:49.537Z,999.72
2018-01-20T02:45:49.603Z,999.76
2018-01-20T02:46:32.269Z,999.74
2018-01-20T02:47:13.479Z,999.73
2018-01-20T02:47:54.112Z,999.69
2018-01-20T02:48:34.812Z,999.77
2018-01-20T02:49:15.259Z,999.74
2018-01-20T02:49:55.751Z,999.69
2018-01-20T02:50:36.035Z,999.69
2018-01-20T02:51:16.431Z,999.72
2018-01-20T02:51:56.869Z,999.69
2018-01-20T02:52:37.831Z,999.66
2018-01-20T02:53:18.772Z,999.67
2018-01-20T02:53:59.166Z,999.68
2018-01-20T02:54:39.590Z,999.69
2018-01-20T02:55:20.064Z,999.66
2018-01-20T02:56:00.643Z,999.69
2018-01-20T02:56:41.313Z,999.59
2018-01-20T02:57:21.591Z,999.59
2018-01-20T02:59:52.866Z,999.65
2018-01-20T03:00:34.184Z,999.6
2018-01-20T03:01:14.495Z,999.62
2018-01-20T03:03:34.042Z,999.57
2018-01-20T03:04:17.216Z,999.6
2018-01-20T03:04:57.954Z,999.65
2018-01-20T03:05:38.214Z,999.67
2018-01-20T03:06:18.774Z,999.59
2018-01-20T03:06:59.156Z,999.5
2018-01-20T03:07:39.630Z,999.57
2018-01-20T03:08:20.540Z,999.61
2018-01-20T03:09:00.719Z,999.62
2018-01-20T03:09:41.222Z,999.6
2018-01-20T03:11:50.905Z,999.47
2018-01-20T03:13:44.979Z,999.56
2018-01-20T03:14:25.459Z,999.51
2018-01-20T03:15:06.002Z,999.45
2018-01-20T03:15:46.446Z,999.57
2018-01-20T03:16:26.773Z,999.5
2018-01-20T03:17:07.576Z,999.52
2018-01-20T03:17:47.843Z,999.51
2018-01-20T03:18:28.237Z,999.5
2018-01-20T03:19:09.279Z,999.49
2018-01-20T03:19:49.642Z,999.46
2018-01-20T03:20:30.044Z,999.45
2018-01-20T03:21:10.382Z,999.42
2018-01-20T03:21:50.860Z,999.44
2018-01-20T03:22:31.630Z,999.42
2018-01-20T03:23:13.209Z,999.43
2018-01-20T03:23:54.423Z,999.4
2018-01-20T03:24:34.836Z,999.42
2018-01-20T03:25:15.224Z,999.42
2018-01-20T03:25:56.447Z,999.42
2018-01-20T03:26:36.582Z,999.38
2018-01-20T03:27:18.516Z,999.37
2018-01-20T03:27:59.013Z,999.33
2018-01-20T03:28:39.866Z,999.33
2018-01-20T03:29:20.319Z,999.34
2018-01-20T03:30:00.812Z,999.29
2018-01-20T03:30:41.080Z,999.33
2018-01-20T03:31:21.477Z,999.36
2018-01-20T03:32:01.981Z,999.34
2018-01-20T03:32:42.301Z,999.33
2018-01-20T03:33:22.753Z,999.27
2018-01-20T03:34:03.272Z,999.26
2018-01-20T03:34:43.982Z,999.24
2018-01-20T03:35:24.385Z,999.25
2018-01-20T03:36:04.957Z,999.22
2018-01-20T03:36:45.502Z,999.22
2018-01-20T03:37:25.877Z,999.16
2018-01-20T03:38:06.359Z,999.24
2018-01-20T03:40:04.923Z,999.23
2018-01-20T03:40:45.430Z,999.22
2018-01-20T03:41:25.924Z,999.22
2018-01-20T03:42:06.294Z,999.21
2018-01-20T03:42:46.842Z,999.26
2018-01-20T03:43:27.316Z,999.18
2018-01-20T03:44:08.004Z,999.16
2018-01-20T03:44:48.729Z,999.22
2018-01-20T03:45:29.380Z,999.15
2018-01-20T03:46:09.817Z,999.17
2018-01-20T03:46:50.838Z,999.14
2018-01-20T03:47:31.696Z,999.14
2018-01-20T03:48:12.823Z,999.13
2018-01-20T03:48:52.686Z,999.14
2018-01-20T03:49:33.134Z,999.1
2018-01-20T03:50:13.610Z,999.08
2018-01-20T03:50:53.986Z,999.12
2018-01-20T03:51:34.384Z,999.1
2018-01-20T03:52:14.781Z,999.07
2018-01-20T03:52:55.259Z,999.01
2018-01-20T03:53:35.922Z,999
2018-01-20T03:54:16.155Z,998.99
2018-01-20T03:54:56.567Z,999.04
2018-01-20T03:55:37.042Z,999.03
2018-01-20T03:56:17.415Z,999
2018-01-20T03:56:57.907Z,999.06
2018-01-20T03:57:38.721Z,999.03
2018-01-20T03:58:18.932Z,999.04
2018-01-20T03:58:59.333Z,999
2018-01-20T03:59:39.768Z,999
2018-01-20T04:00:20.249Z,998.97
2018-01-20T04:01:00.653Z,998.95
2018-01-20T04:01:41.184Z,998.94
2018-01-20T04:44:44.153Z,998.67
2018-01-20T04:45:30.925Z,998.62
2018-01-20T04:50:44.204Z,998.7
2018-01-20T04:51:32.682Z,998.64
2018-01-20T04:52:10.762Z,998.64
2018-01-20T04:52:51.201Z,998.66
2018-01-20T04:53:31.601Z,998.69
2018-01-20T04:54:11.898Z,998.65
2018-01-20T04:54:52.437Z,998.61
2018-01-20T04:55:32.751Z,998.61
2018-01-20T04:56:13.180Z,998.6
2018-01-20T04:56:53.566Z,998.59
2018-01-20T04:57:34.032Z,998.57
2018-01-20T04:58:14.420Z,998.62
2018-01-20T04:58:54.715Z,998.61
2018-01-20T04:59:35.108Z,998.58
2018-01-20T05:00:15.670Z,998.57
2018-01-20T05:00:56.041Z,998.58
2018-01-20T05:04:22.924Z,998.42
2018-01-20T05:06:13.350Z,998.44
2018-01-20T05:08:07.156Z,998.5
2018-01-20T05:09:00.787Z,998.49
2018-01-20T05:09:46.636Z,998.48
2018-01-20T05:10:30.445Z,998.48
2018-01-20T05:11:10.702Z,998.44
2018-01-20T05:11:51.451Z,998.39
2018-01-20T05:12:31.789Z,998.43
2018-01-20T05:13:12.151Z,998.44
2018-01-20T05:13:52.567Z,998.41
2018-01-20T05:14:32.958Z,998.38
2018-01-20T05:15:13.403Z,998.38
2018-01-20T05:15:53.775Z,998.41
2018-01-20T05:16:34.161Z,998.35
2018-01-20T05:17:14.572Z,998.36
2018-01-20T05:17:54.996Z,998.36
2018-01-20T05:18:35.912Z,998.33
2018-01-20T05:19:15.954Z,998.35
2018-01-20T05:19:56.387Z,998.33
2018-01-20T05:20:36.756Z,998.38
2018-01-20T05:21:17.199Z,998.35
2018-01-20T05:21:57.669Z,998.34
2018-01-20T05:22:38.147Z,998.36
2018-01-20T05:23:18.693Z,998.36
2018-01-20T05:23:59.151Z,998.37
2018-01-20T05:24:39.675Z,998.36
2018-01-20T05:25:19.981Z,998.33
2018-01-20T05:26:00.361Z,998.32
2018-01-20T05:26:40.793Z,998.29
2018-01-20T05:27:21.363Z,998.27
2018-01-20T05:28:01.794Z,998.26
2018-01-20T05:28:42.261Z,998.26
2018-01-20T05:29:22.711Z,998.27
2018-01-20T05:30:03.525Z,998.29
2018-01-20T05:30:43.605Z,998.28
2018-01-20T05:31:24.035Z,998.27
2018-01-20T05:32:04.405Z,998.29
2018-01-20T05:32:44.822Z,998.3
2018-01-20T05:33:25.215Z,998.33
2018-01-20T05:34:05.763Z,998.34
2018-01-20T05:37:34.815Z,998.28
2018-01-20T05:44:13.304Z,998.28
2018-01-20T05:46:12.566Z,998.31
2018-01-20T05:47:05.092Z,998.31
2018-01-20T05:48:01.961Z,998.3
2018-01-20T05:48:55.699Z,998.3
2018-01-20T05:49:50.184Z,998.38
2018-01-20T05:50:44.003Z,998.38
2018-01-20T05:51:36.633Z,998.41
2018-01-20T05:52:28.944Z,998.46
2018-01-20T05:53:22.319Z,998.39
2018-01-20T05:54:16.785Z,998.41
2018-01-20T05:55:08.925Z,998.41
2018-01-20T05:56:02.246Z,998.41
2018-01-20T05:56:55.337Z,998.41
2018-01-20T05:57:48.744Z,998.42
2018-01-20T05:58:42.466Z,998.41
2018-01-20T05:59:34.599Z,998.36
2018-01-20T06:00:26.849Z,998.34
2018-01-20T06:01:19.644Z,998.36
2018-01-20T06:02:11.848Z,998.33
2018-01-20T06:03:03.835Z,998.32
2018-01-20T06:03:56.498Z,998.27
2018-01-20T06:04:48.912Z,998.27
2018-01-20T06:05:41.879Z,998.28
2018-01-20T06:06:34.104Z,998.3
2018-01-20T06:07:26.788Z,998.25
2018-01-20T06:08:18.727Z,998.26
2018-01-20T06:09:11.464Z,998.22
2018-01-20T06:10:03.786Z,998.22
2018-01-20T06:10:56.776Z,998.25
2018-01-20T06:11:50.532Z,998.21
2018-01-20T06:12:44.081Z,998.21
2018-01-20T06:13:36.893Z,998.17
2018-01-20T06:14:29.901Z,998.15
2018-01-20T06:15:23.266Z,998.15
2018-01-20T06:16:15.538Z,998.12
2018-01-20T06:17:08.002Z,998.13
2018-01-20T06:18:02.522Z,998.09
2018-01-20T06:18:55.463Z,998.07
2018-01-20T06:19:50.371Z,998.1
2018-01-20T06:20:43.513Z,998.04
2018-01-20T06:21:36.035Z,998
2018-01-20T06:22:28.310Z,997.97
2018-01-20T06:23:20.846Z,997.97
2018-01-20T06:24:16.878Z,997.97
2018-01-20T06:25:10.269Z,998.03
2018-01-20T06:26:02.887Z,998.02
2018-01-20T06:26:55.515Z,997.99
2018-01-20T06:27:47.797Z,997.96
2018-01-20T06:28:42.841Z,997.93
2018-01-20T06:29:36.499Z,997.93
2018-01-20T06:30:28.595Z,997.92
2018-01-20T06:31:20.870Z,997.9
2018-01-20T06:32:14.038Z,997.95
2018-01-20T06:33:06.770Z,997.88
2018-01-20T06:34:00.836Z,997.92
2018-01-20T06:34:52.969Z,997.99
2018-01-20T06:35:45.788Z,997.94
2018-01-20T06:36:39.362Z,997.94
2018-01-20T06:37:32.631Z,997.88
2018-01-20T06:38:25.155Z,997.91
2018-01-20T06:39:18.614Z,997.87
2018-01-20T06:40:11.069Z,997.88
2018-01-20T06:41:03.685Z,997.9
2018-01-20T06:41:57.385Z,997.92
2018-01-20T06:42:50.508Z,997.91
2018-01-20T06:43:43.932Z,997.9
2018-01-20T06:44:37.784Z,997.92
2018-01-20T06:45:32.503Z,997.92
2018-01-20T06:46:28.282Z,997.89
2018-01-20T06:47:22.639Z,997.87
2018-01-20T06:48:19.916Z,997.87
2018-01-20T06:49:17.415Z,997.76
2018-01-20T06:50:19.484Z,997.85
2018-01-20T06:51:16.692Z,997.87
2018-01-20T06:52:10.317Z,997.84
2018-01-20T06:53:06.416Z,997.82
2018-01-20T06:54:00.642Z,997.79
2018-01-20T06:54:55.831Z,997.74
2018-01-20T06:55:51.112Z,997.74
2018-01-20T06:56:46.984Z,997.72
2018-01-20T06:57:41.276Z,997.67
2018-01-20T06:58:33.980Z,997.71
2018-01-20T06:59:29.247Z,997.68
2018-01-20T07:00:23.356Z,997.67
2018-01-20T07:01:16.437Z,997.67
2018-01-20T07:02:12.027Z,997.65
2018-01-20T07:03:07.361Z,997.61
2018-01-20T07:07:29.231Z,997.61
2018-01-20T07:08:23.956Z,997.63
2018-01-20T07:09:22.225Z,997.69
2018-01-20T07:10:18.332Z,997.67
2018-01-20T07:11:13.446Z,997.68
2018-01-20T07:12:09.932Z,997.65
2018-01-20T07:13:08.199Z,997.62
2018-01-20T07:14:19.222Z,997.58
2018-01-20T07:15:12.952Z,997.66
2018-01-20T07:16:12.419Z,997.6
2018-01-20T07:17:08.908Z,997.57
2018-01-20T07:18:14.897Z,997.53
2018-01-20T07:19:11.054Z,997.52
2018-01-20T07:24:24.116Z,997.53
2018-01-20T10:43:45.299Z,995.01
2018-01-20T10:49:19.825Z,994.98
2018-01-20T10:50:00.954Z,994.91
2018-01-20T10:50:43.078Z,995
2018-01-20T10:51:26.835Z,994.93
2018-01-20T10:52:08.708Z,994.91
2018-01-20T10:52:49.175Z,994.89
2018-01-20T10:53:29.652Z,994.83
2018-01-20T10:54:10.703Z,994.8
2018-01-20T10:54:52.046Z,994.78
2018-01-20T10:55:32.650Z,994.73
2018-01-20T10:56:14.221Z,994.76
2018-01-20T10:56:56.204Z,994.78
2018-01-20T10:57:36.962Z,994.77
2018-01-20T10:58:17.586Z,994.71
2018-01-20T10:58:59.064Z,994.69
2018-01-20T10:59:39.506Z,994.69
2018-01-20T11:00:19.994Z,994.69
2018-01-20T11:01:00.395Z,994.7
2018-01-20T11:01:40.738Z,994.66
2018-01-20T11:02:21.130Z,994.62
2018-01-20T11:03:01.530Z,994.59
2018-01-20T11:03:41.966Z,994.58
2018-01-20T11:04:22.380Z,994.67
2018-01-20T11:05:02.824Z,994.61
2018-01-20T11:05:43.245Z,994.6
2018-01-20T11:06:23.549Z,994.57
2018-01-20T11:07:04.032Z,994.56
2018-01-20T11:07:44.482Z,994.51
2018-01-20T11:08:24.877Z,994.56
2018-01-20T11:09:05.277Z,994.52
2018-01-20T11:09:45.713Z,994.49
2018-01-20T11:10:26.107Z,994.46
2018-01-20T11:11:06.472Z,994.47
2018-01-20T11:11:46.964Z,994.45
2018-01-20T11:12:27.381Z,994.41
2018-01-20T11:13:07.872Z,994.42
2018-01-20T11:13:48.270Z,994.42
2018-01-20T11:14:28.721Z,994.39
2018-01-20T11:15:09.114Z,994.4
2018-01-20T11:15:49.562Z,994.41
2018-01-20T11:16:29.996Z,994.41
2018-01-20T11:17:10.348Z,994.35
2018-01-20T11:17:50.765Z,994.37
2018-01-20T11:18:31.272Z,994.38
2018-01-20T11:19:11.651Z,994.34
2018-01-20T11:19:52.032Z,994.35
2018-01-20T11:20:32.465Z,994.33
2018-01-20T11:21:12.892Z,994.3
2018-01-20T11:21:53.326Z,994.28
2018-01-20T11:22:33.731Z,994.22
2018-01-20T11:23:14.180Z,994.26
2018-01-20T11:23:54.552Z,994.25
2018-01-20T11:24:35.024Z,994.24
2018-01-20T11:25:15.391Z,994.21
2018-01-20T11:25:55.921Z,994.19
2018-01-20T11:26:36.302Z,994.2
2018-01-20T11:27:16.794Z,994.21
2018-01-20T11:27:57.293Z,994.17
2018-01-20T11:28:37.698Z,994.22
2018-01-20T11:29:18.152Z,994.21
2018-01-20T11:29:58.502Z,994.2
2018-01-20T11:30:38.907Z,994.19
2018-01-20T11:31:19.357Z,994.18
2018-01-20T11:31:59.799Z,994.13
2018-01-20T11:32:40.310Z,994.17
2018-01-20T11:33:20.829Z,994.15
2018-01-20T11:34:01.213Z,994.1
2018-01-20T11:34:41.642Z,994.15
2018-01-20T11:35:21.976Z,994.11
2018-01-20T11:36:02.452Z,994.1
2018-01-20T11:36:42.847Z,994.05
2018-01-20T11:37:23.215Z,994.03
2018-01-20T11:38:04.653Z,993.97
2018-01-20T11:38:45.813Z,994
2018-01-20T11:39:29.505Z,993.95
2018-01-20T11:40:09.831Z,993.95
2018-01-20T11:40:50.538Z,993.86
2018-01-20T11:41:32.005Z,993.86
2018-01-20T11:42:12.005Z,993.83
2018-01-20T11:42:52.646Z,993.84
2018-01-20T11:43:33.060Z,993.82
2018-01-20T11:44:13.479Z,993.76
2018-01-20T11:45:08.811Z,993.75
2018-01-20T11:45:49.225Z,993.78
2018-01-20T11:46:29.618Z,993.71
2018-01-20T11:47:10.021Z,993.74
2018-01-20T11:47:50.473Z,993.69
2018-01-20T11:48:30.921Z,993.68
2018-01-20T11:49:11.334Z,993.66
2018-01-20T11:49:51.785Z,993.65
2018-01-20T11:50:32.160Z,993.62
2018-01-20T11:51:12.495Z,993.63
2018-01-20T11:51:52.909Z,993.59
2018-01-20T11:52:33.310Z,993.57
2018-01-20T11:53:13.715Z,993.62
2018-01-20T11:53:54.150Z,993.57
2018-01-20T11:54:34.512Z,993.58
2018-01-20T11:55:14.924Z,993.6
2018-01-20T11:55:55.336Z,993.54
2018-01-20T11:56:35.747Z,993.53
2018-01-20T11:57:16.159Z,993.5
2018-01-20T11:57:56.502Z,993.43
2018-01-20T11:58:36.927Z,993.48
2018-01-20T11:59:17.397Z,993.46
2018-01-20T11:59:57.765Z,993.45
2018-01-20T12:00:38.198Z,993.38
2018-01-20T12:01:18.573Z,993.35
2018-01-20T12:01:58.959Z,993.41
2018-01-20T12:02:39.333Z,993.33
2018-01-20T12:03:19.753Z,993.33
2018-01-20T12:04:00.169Z,993.34
2018-01-20T12:04:40.521Z,993.27
2018-01-20T12:05:20.988Z,993.31
2018-01-20T12:06:01.359Z,993.25
2018-01-20T12:06:41.772Z,993.2
2018-01-20T12:07:22.166Z,993.24
2018-01-20T12:08:02.637Z,993.18
2018-01-20T12:08:43.016Z,993.22
2018-01-20T12:09:23.420Z,993.19
2018-01-20T12:10:03.793Z,993.15
2018-01-20T12:10:44.213Z,993.08
2018-01-20T12:11:24.591Z,993.16
2018-01-20T12:12:04.963Z,993.09
2018-01-20T12:12:45.411Z,993.08
2018-01-20T12:13:25.747Z,993.09
2018-01-20T12:14:06.179Z,993.07
2018-01-20T12:14:46.596Z,993.05
2018-01-20T12:15:26.955Z,993.01
2018-01-20T12:16:07.327Z,992.97
2018-01-20T12:16:47.736Z,992.92
2018-01-20T12:17:28.128Z,992.94
2018-01-20T12:18:08.480Z,992.89
2018-01-20T12:20:37.361Z,992.85
2018-01-20T12:21:17.742Z,992.81
2018-01-20T12:21:58.208Z,992.82
2018-01-20T12:22:38.667Z,992.67
2018-01-20T12:23:18.953Z,992.74
2018-01-20T12:25:12.960Z,992.68
2018-01-20T12:25:53.184Z,992.64
2018-01-20T12:26:33.603Z,992.62
2018-01-20T12:27:13.967Z,992.71
2018-01-20T12:27:54.324Z,992.56
2018-01-20T12:28:34.741Z,992.55
2018-01-20T12:29:15.067Z,992.52
2018-01-20T12:29:55.459Z,992.53
2018-01-20T12:30:35.842Z,992.57
2018-01-20T12:31:16.274Z,992.42
2018-01-20T12:31:56.659Z,992.48
2018-01-20T12:32:37.060Z,992.48
2018-01-20T12:33:17.501Z,992.44
2018-01-20T12:33:57.930Z,992.43
2018-01-20T12:34:38.342Z,992.42
2018-01-20T12:35:18.791Z,992.43
2018-01-20T12:35:59.167Z,992.43
2018-01-20T12:36:39.583Z,992.38
2018-01-20T12:37:19.908Z,992.39
2018-01-20T12:38:00.382Z,992.38
2018-01-20T12:38:40.731Z,992.35
2018-01-20T12:39:21.141Z,992.34
2018-01-20T12:40:01.550Z,992.31
2018-01-20T12:40:41.905Z,992.33
2018-01-20T12:41:22.285Z,992.31
2018-01-20T12:42:02.659Z,992.27
2018-01-20T12:42:43.075Z,992.3
2018-01-20T12:43:23.510Z,992.34
2018-01-20T12:44:03.921Z,992.26
2018-01-20T12:44:44.282Z,992.26
2018-01-20T12:45:24.623Z,992.22
2018-01-20T12:46:05.048Z,992.24
2018-01-20T12:46:45.436Z,992.19
2018-01-20T12:47:25.807Z,992.21
2018-01-20T12:48:06.241Z,992.19
2018-01-20T12:48:46.633Z,992.14
2018-01-20T12:49:26.987Z,992.22
2018-01-20T12:50:07.395Z,992.17
2018-01-20T12:50:47.950Z,992.15
2018-01-20T12:51:28.270Z,992.07
2018-01-20T12:52:08.671Z,992.02
2018-01-20T12:52:49.027Z,992.03
2018-01-20T12:53:29.444Z,992.07
2018-01-20T12:54:09.920Z,992.03
2018-01-20T12:54:50.343Z,991.93
2018-01-20T12:55:30.725Z,991.94
2018-01-20T12:56:11.146Z,991.95
2018-01-20T12:56:51.484Z,991.96
2018-01-20T12:57:31.937Z,991.92
2018-01-20T12:58:12.310Z,991.88
2018-01-20T12:58:52.721Z,991.88
2018-01-20T12:59:33.118Z,991.87
2018-01-20T13:00:13.467Z,991.9
2018-01-20T13:00:53.830Z,991.85
2018-01-20T13:01:34.262Z,991.81
2018-01-20T13:02:14.588Z,991.79
2018-01-20T13:02:55.099Z,991.79
2018-01-20T13:03:35.462Z,991.77
2018-01-20T13:04:15.881Z,991.75
2018-01-20T13:04:56.247Z,991.72
2018-01-20T13:05:36.698Z,991.74
2018-01-20T13:06:17.128Z,991.73
2018-01-20T13:06:57.486Z,991.67
2018-01-20T13:07:37.853Z,991.66
2018-01-20T13:08:18.268Z,991.61
2018-01-20T13:08:58.702Z,991.57
2018-01-20T13:09:39.077Z,991.6
2018-01-20T13:10:19.519Z,991.62
2018-01-20T13:10:59.864Z,991.53
2018-01-20T13:11:40.305Z,991.53
2018-01-20T13:12:20.667Z,991.58
2018-01-20T13:13:01.081Z,991.55
2018-01-20T13:13:41.432Z,991.5
2018-01-20T13:14:21.815Z,991.51
2018-01-20T13:15:02.207Z,991.49
2018-01-20T13:15:42.608Z,991.43
2018-01-20T13:16:23.059Z,991.42
2018-01-20T13:17:03.412Z,991.39
2018-01-20T13:17:43.846Z,991.42
2018-01-20T13:18:24.206Z,991.4
2018-01-20T13:19:04.706Z,991.37
2018-01-20T13:19:45.081Z,991.33
2018-01-20T13:20:25.473Z,991.31
2018-01-20T13:21:05.765Z,991.32
2018-01-20T13:21:46.160Z,991.28
2018-01-20T13:22:26.590Z,991.29
2018-01-20T13:23:07.035Z,991.29
2018-01-20T13:23:47.423Z,991.23
2018-01-20T13:24:27.784Z,991.26
2018-01-20T13:25:08.198Z,991.23
2018-01-20T13:25:48.588Z,991.22
2018-01-20T13:26:28.989Z,991.19
2018-01-20T13:27:09.353Z,991.23
2018-01-20T13:27:49.762Z,991.18
2018-01-20T13:28:30.168Z,991.19
2018-01-20T13:29:10.545Z,991.17
2018-01-20T13:29:50.943Z,991.13
2018-01-20T13:30:31.377Z,991.05
2018-01-20T13:31:11.769Z,991.12
2018-01-20T13:31:52.227Z,991.07
2018-01-20T13:32:32.573Z,991.09
2018-01-20T13:33:12.950Z,991.1
2018-01-20T13:33:53.396Z,991.07
2018-01-20T13:34:33.780Z,991.05
2018-01-20T13:35:14.181Z,991.02
2018-01-20T13:35:54.706Z,991.02
2018-01-20T13:36:35.126Z,991
2018-01-20T13:37:15.514Z,990.98
2018-01-20T13:37:55.904Z,990.97
2018-01-20T13:38:36.272Z,990.95
2018-01-20T13:39:17.467Z,990.93
2018-01-20T13:39:57.057Z,990.94
2018-01-20T13:40:37.453Z,990.99
2018-01-20T13:41:18.014Z,990.89
2018-01-20T13:41:58.384Z,990.89
2018-01-20T13:42:38.779Z,990.93
2018-01-20T13:43:19.217Z,990.87